sensor_id;sensor_type;location;lat;lon;timestamp;temperature;humidity
25937;DHT22;13733;51.178;4.450;2023-05-24T00:01:49;11.90;99.90
25937;DHT22;13733;51.178;4.450;2023-05-24T00:04:15;11.80;99.90
25937;DHT22;13733;51.178;4.450;2023-05-24T00:06:41;11.80;99.90
25937;DHT22;13733;51.178;4.450;2023-05-24T00:09:09;11.70;99.90
25937;DHT22;13733;51.178;4.450;2023-05-24T00:11:36;11.60;99.90
25937;DHT22;13733;51.178;4.450;2023-05-24T00:14:02;11.70;99.90
25937;DHT22;13733;51.178;4.450;2023-05-24T00:16:27;11.60;99.90
25937;DHT22;13733;51.178;4.450;2023-05-24T00:18:54;11.60;99.90
25937;DHT22;13733;51.178;4.450;2023-05-24T00:21:20;11.50;99.90
25937;DHT22;13733;51.178;4.450;2023-05-24T00:23:46;11.50;99.90
25937;DHT22;13733;51.178;4.450;2023-05-24T00:26:12;11.50;99.90
25937;DHT22;13733;51.178;4.450;2023-05-24T00:28:42;11.60;99.90
25937;DHT22;13733;51.178;4.450;2023-05-24T00:31:08;11.60;99.90
25937;DHT22;13733;51.178;4.450;2023-05-24T00:33:33;11.50;99.90
25937;DHT22;13733;51.178;4.450;2023-05-24T00:35:59;11.50;99.90
25937;DHT22;13733;51.178;4.450;2023-05-24T00:38:25;11.40;99.90
25937;DHT22;13733;51.178;4.450;2023-05-24T00:40:52;11.40;99.90
25937;DHT22;13733;51.178;4.450;2023-05-24T00:43:22;11.40;99.90
25937;DHT22;13733;51.178;4.450;2023-05-24T00:45:50;11.40;99.90
25937;DHT22;13733;51.178;4.450;2023-05-24T00:48:23;11.40;99.90
25937;DHT22;13733;51.178;4.450;2023-05-24T00:50:53;11.50;99.90
25937;DHT22;13733;51.178;4.450;2023-05-24T00:53:19;11.50;99.90
25937;DHT22;13733;51.178;4.450;2023-05-24T00:55:45;11.40;99.90
25937;DHT22;13733;51.178;4.450;2023-05-24T00:58:11;11.40;99.90
25937;DHT22;13733;51.178;4.450;2023-05-24T01:00:37;11.30;99.90
25937;DHT22;13733;51.178;4.450;2023-05-24T01:03:03;11.30;99.90
25937;DHT22;13733;51.178;4.450;2023-05-24T01:05:29;11.30;99.90
25937;DHT22;13733;51.178;4.450;2023-05-24T01:16:20;11.20;99.90
25937;DHT22;13733;51.178;4.450;2023-05-24T01:18:56;11.20;99.90
25937;DHT22;13733;51.178;4.450;2023-05-24T01:24:24;11.10;99.90
25937;DHT22;13733;51.178;4.450;2023-05-24T01:27:06;11.10;99.90
25937;DHT22;13733;51.178;4.450;2023-05-24T01:29:34;11.10;99.90
25937;DHT22;13733;51.178;4.450;2023-05-24T01:32:02;11.10;99.90
25937;DHT22;13733;51.178;4.450;2023-05-24T01:34:28;11.10;99.90
25937;DHT22;13733;51.178;4.450;2023-05-24T01:36:54;11.10;99.90
25937;DHT22;13733;51.178;4.450;2023-05-24T01:39:21;11.10;99.90
25937;DHT22;13733;51.178;4.450;2023-05-24T01:49:49;11.00;99.90
25937;DHT22;13733;51.178;4.450;2023-05-24T01:52:21;10.90;99.90
25937;DHT22;13733;51.178;4.450;2023-05-24T01:54:47;10.90;99.90
25937;DHT22;13733;51.178;4.450;2023-05-24T01:57:18;10.90;99.90
25937;DHT22;13733;51.178;4.450;2023-05-24T01:59:45;10.80;99.90
25937;DHT22;13733;51.178;4.450;2023-05-24T02:02:12;10.80;99.90
25937;DHT22;13733;51.178;4.450;2023-05-24T02:04:39;10.80;99.90
25937;DHT22;13733;51.178;4.450;2023-05-24T02:07:05;10.80;99.90
25937;DHT22;13733;51.178;4.450;2023-05-24T02:09:32;10.80;99.90
25937;DHT22;13733;51.178;4.450;2023-05-24T02:11:58;10.70;99.90
25937;DHT22;13733;51.178;4.450;2023-05-24T02:14:24;10.70;99.90
25937;DHT22;13733;51.178;4.450;2023-05-24T02:16:50;10.60;99.90
25937;DHT22;13733;51.178;4.450;2023-05-24T02:19:17;10.60;99.90
25937;DHT22;13733;51.178;4.450;2023-05-24T02:21:43;10.60;99.90
25937;DHT22;13733;51.178;4.450;2023-05-24T02:24:10;10.50;99.90
25937;DHT22;13733;51.178;4.450;2023-05-24T02:26:37;10.50;99.90
25937;DHT22;13733;51.178;4.450;2023-05-24T02:29:03;10.40;99.90
25937;DHT22;13733;51.178;4.450;2023-05-24T02:31:29;10.40;99.90
25937;DHT22;13733;51.178;4.450;2023-05-24T02:33:56;10.40;99.90
25937;DHT22;13733;51.178;4.450;2023-05-24T02:36:23;10.40;99.90
25937;DHT22;13733;51.178;4.450;2023-05-24T02:38:49;10.30;99.90
25937;DHT22;13733;51.178;4.450;2023-05-24T02:41:16;10.30;99.90
25937;DHT22;13733;51.178;4.450;2023-05-24T02:43:46;10.30;99.90
25937;DHT22;13733;51.178;4.450;2023-05-24T02:46:13;10.30;99.90
25937;DHT22;13733;51.178;4.450;2023-05-24T02:48:39;10.20;99.90
25937;DHT22;13733;51.178;4.450;2023-05-24T02:51:05;10.30;99.90
25937;DHT22;13733;51.178;4.450;2023-05-24T02:53:32;10.10;99.90
25937;DHT22;13733;51.178;4.450;2023-05-24T02:55:58;10.00;99.90
25937;DHT22;13733;51.178;4.450;2023-05-24T02:58:25;9.90;99.90
25937;DHT22;13733;51.178;4.450;2023-05-24T03:00:54;10.00;99.90
25937;DHT22;13733;51.178;4.450;2023-05-24T03:03:20;9.90;99.90
25937;DHT22;13733;51.178;4.450;2023-05-24T03:05:46;10.00;99.90
25937;DHT22;13733;51.178;4.450;2023-05-24T03:08:12;9.90;99.90
25937;DHT22;13733;51.178;4.450;2023-05-24T03:10:38;9.90;99.90
25937;DHT22;13733;51.178;4.450;2023-05-24T03:13:05;9.80;99.90
25937;DHT22;13733;51.178;4.450;2023-05-24T03:15:32;9.90;99.90
25937;DHT22;13733;51.178;4.450;2023-05-24T03:17:58;9.80;99.90
25937;DHT22;13733;51.178;4.450;2023-05-24T03:20:24;9.80;99.90
25937;DHT22;13733;51.178;4.450;2023-05-24T03:22:50;9.70;99.90
25937;DHT22;13733;51.178;4.450;2023-05-24T03:25:16;9.80;99.90
25937;DHT22;13733;51.178;4.450;2023-05-24T03:27:42;9.80;99.90
25937;DHT22;13733;51.178;4.450;2023-05-24T03:30:08;9.70;99.90
25937;DHT22;13733;51.178;4.450;2023-05-24T03:32:42;9.80;99.90
25937;DHT22;13733;51.178;4.450;2023-05-24T03:35:08;9.80;99.90
25937;DHT22;13733;51.178;4.450;2023-05-24T03:37:37;9.80;99.90
25937;DHT22;13733;51.178;4.450;2023-05-24T03:40:03;9.80;99.90
25937;DHT22;13733;51.178;4.450;2023-05-24T03:42:44;9.80;99.90
25937;DHT22;13733;51.178;4.450;2023-05-24T03:45:13;9.90;99.90
25937;DHT22;13733;51.178;4.450;2023-05-24T03:47:38;9.80;99.90
25937;DHT22;13733;51.178;4.450;2023-05-24T03:50:05;9.80;99.90
25937;DHT22;13733;51.178;4.450;2023-05-24T03:52:30;9.80;99.90
25937;DHT22;13733;51.178;4.450;2023-05-24T03:54:56;9.90;99.90
25937;DHT22;13733;51.178;4.450;2023-05-24T03:57:22;9.90;99.90
25937;DHT22;13733;51.178;4.450;2023-05-24T03:59:48;9.80;99.90
25937;DHT22;13733;51.178;4.450;2023-05-24T04:02:13;9.90;99.90
25937;DHT22;13733;51.178;4.450;2023-05-24T04:04:39;9.90;99.90
25937;DHT22;13733;51.178;4.450;2023-05-24T04:07:05;9.80;99.90
25937;DHT22;13733;51.178;4.450;2023-05-24T04:09:32;9.80;99.90
25937;DHT22;13733;51.178;4.450;2023-05-24T04:11:58;9.90;99.90
25937;DHT22;13733;51.178;4.450;2023-05-24T04:14:23;10.00;99.90
25937;DHT22;13733;51.178;4.450;2023-05-24T04:16:49;10.00;99.90
25937;DHT22;13733;51.178;4.450;2023-05-24T04:19:18;10.00;99.90
25937;DHT22;13733;51.178;4.450;2023-05-24T04:21:44;10.00;99.90
25937;DHT22;13733;51.178;4.450;2023-05-24T04:24:10;10.10;99.90
25937;DHT22;13733;51.178;4.450;2023-05-24T04:26:36;10.00;99.90
25937;DHT22;13733;51.178;4.450;2023-05-24T04:29:02;10.10;99.90
25937;DHT22;13733;51.178;4.450;2023-05-24T04:31:28;10.10;99.90
25937;DHT22;13733;51.178;4.450;2023-05-24T04:33:57;10.20;99.90
25937;DHT22;13733;51.178;4.450;2023-05-24T04:36:24;10.20;99.90
25937;DHT22;13733;51.178;4.450;2023-05-24T04:38:51;10.30;99.90
25937;DHT22;13733;51.178;4.450;2023-05-24T04:41:20;10.40;99.90
25937;DHT22;13733;51.178;4.450;2023-05-24T04:43:47;10.40;99.90
25937;DHT22;13733;51.178;4.450;2023-05-24T04:46:12;10.50;99.90
25937;DHT22;13733;51.178;4.450;2023-05-24T04:48:38;10.40;99.90
25937;DHT22;13733;51.178;4.450;2023-05-24T04:51:05;10.50;99.90
25937;DHT22;13733;51.178;4.450;2023-05-24T04:53:31;10.50;99.90
25937;DHT22;13733;51.178;4.450;2023-05-24T04:55:57;10.60;99.90
25937;DHT22;13733;51.178;4.450;2023-05-24T04:58:23;10.70;99.90
25937;DHT22;13733;51.178;4.450;2023-05-24T05:00:49;10.70;99.90
25937;DHT22;13733;51.178;4.450;2023-05-24T05:03:14;10.70;99.90
25937;DHT22;13733;51.178;4.450;2023-05-24T05:05:40;10.80;99.90
25937;DHT22;13733;51.178;4.450;2023-05-24T05:08:06;10.80;99.90
25937;DHT22;13733;51.178;4.450;2023-05-24T05:10:32;10.90;99.90
25937;DHT22;13733;51.178;4.450;2023-05-24T05:12:58;10.90;99.90
25937;DHT22;13733;51.178;4.450;2023-05-24T05:15:23;11.00;99.90
25937;DHT22;13733;51.178;4.450;2023-05-24T05:17:49;11.10;99.90
25937;DHT22;13733;51.178;4.450;2023-05-24T05:20:15;11.20;99.90
25937;DHT22;13733;51.178;4.450;2023-05-24T05:22:45;11.30;99.90
25937;DHT22;13733;51.178;4.450;2023-05-24T05:25:18;11.30;99.90
25937;DHT22;13733;51.178;4.450;2023-05-24T05:27:46;11.40;99.90
25937;DHT22;13733;51.178;4.450;2023-05-24T05:30:12;11.50;99.90
25937;DHT22;13733;51.178;4.450;2023-05-24T05:32:38;11.60;99.90
25937;DHT22;13733;51.178;4.450;2023-05-24T05:35:04;11.70;99.90
25937;DHT22;13733;51.178;4.450;2023-05-24T05:37:30;11.90;99.90
25937;DHT22;13733;51.178;4.450;2023-05-24T05:39:56;12.00;99.90
25937;DHT22;13733;51.178;4.450;2023-05-24T05:42:22;12.10;99.90
25937;DHT22;13733;51.178;4.450;2023-05-24T05:44:49;12.30;99.90
25937;DHT22;13733;51.178;4.450;2023-05-24T05:47:15;12.40;99.90
25937;DHT22;13733;51.178;4.450;2023-05-24T05:49:40;12.50;99.90
25937;DHT22;13733;51.178;4.450;2023-05-24T05:52:06;12.50;99.90
25937;DHT22;13733;51.178;4.450;2023-05-24T05:54:32;12.60;99.90
25937;DHT22;13733;51.178;4.450;2023-05-24T05:56:58;12.60;99.90
25937;DHT22;13733;51.178;4.450;2023-05-24T05:59:24;12.50;99.90
25937;DHT22;13733;51.178;4.450;2023-05-24T06:01:50;12.50;99.90
25937;DHT22;13733;51.178;4.450;2023-05-24T06:04:17;12.50;99.90
25937;DHT22;13733;51.178;4.450;2023-05-24T06:06:44;12.60;99.90
25937;DHT22;13733;51.178;4.450;2023-05-24T06:09:15;12.60;99.90
25937;DHT22;13733;51.178;4.450;2023-05-24T06:11:41;12.60;99.90
25937;DHT22;13733;51.178;4.450;2023-05-24T06:14:13;12.70;99.90
25937;DHT22;13733;51.178;4.450;2023-05-24T06:16:43;12.90;99.90
25937;DHT22;13733;51.178;4.450;2023-05-24T06:19:13;13.00;99.90
25937;DHT22;13733;51.178;4.450;2023-05-24T06:21:41;13.00;99.90
25937;DHT22;13733;51.178;4.450;2023-05-24T06:24:13;13.10;99.90
25937;DHT22;13733;51.178;4.450;2023-05-24T06:26:40;13.30;99.90
25937;DHT22;13733;51.178;4.450;2023-05-24T06:29:06;13.50;99.90
25937;DHT22;13733;51.178;4.450;2023-05-24T06:31:33;13.60;99.90
25937;DHT22;13733;51.178;4.450;2023-05-24T06:33:59;13.60;99.90
25937;DHT22;13733;51.178;4.450;2023-05-24T06:36:24;13.70;99.90
25937;DHT22;13733;51.178;4.450;2023-05-24T06:38:51;13.80;99.90
25937;DHT22;13733;51.178;4.450;2023-05-24T06:41:17;13.80;99.90
25937;DHT22;13733;51.178;4.450;2023-05-24T06:43:42;13.90;99.90
25937;DHT22;13733;51.178;4.450;2023-05-24T06:46:08;14.00;99.90
25937;DHT22;13733;51.178;4.450;2023-05-24T06:48:34;14.20;99.90
25937;DHT22;13733;51.178;4.450;2023-05-24T06:51:00;14.30;99.90
25937;DHT22;13733;51.178;4.450;2023-05-24T06:53:26;14.20;99.90
25937;DHT22;13733;51.178;4.450;2023-05-24T06:55:52;14.30;99.90
25937;DHT22;13733;51.178;4.450;2023-05-24T06:58:18;14.40;99.90
25937;DHT22;13733;51.178;4.450;2023-05-24T07:00:43;14.50;99.90
25937;DHT22;13733;51.178;4.450;2023-05-24T07:03:11;14.70;99.90
25937;DHT22;13733;51.178;4.450;2023-05-24T07:05:37;14.90;99.90
25937;DHT22;13733;51.178;4.450;2023-05-24T07:08:03;15.20;99.90
25937;DHT22;13733;51.178;4.450;2023-05-24T07:10:29;15.50;99.90
25937;DHT22;13733;51.178;4.450;2023-05-24T07:12:55;15.80;99.90
25937;DHT22;13733;51.178;4.450;2023-05-24T07:15:21;16.10;99.90
25937;DHT22;13733;51.178;4.450;2023-05-24T07:17:47;16.10;99.90
25937;DHT22;13733;51.178;4.450;2023-05-24T07:20:13;16.20;99.90
25937;DHT22;13733;51.178;4.450;2023-05-24T07:22:39;16.30;99.90
25937;DHT22;13733;51.178;4.450;2023-05-24T07:25:06;16.30;99.90
25937;DHT22;13733;51.178;4.450;2023-05-24T07:27:31;16.30;99.90
25937;DHT22;13733;51.178;4.450;2023-05-24T07:29:58;16.50;99.90
25937;DHT22;13733;51.178;4.450;2023-05-24T07:32:24;16.60;99.90
25937;DHT22;13733;51.178;4.450;2023-05-24T07:34:50;16.80;99.90
25937;DHT22;13733;51.178;4.450;2023-05-24T07:37:16;16.90;99.90
25937;DHT22;13733;51.178;4.450;2023-05-24T07:39:42;17.10;99.90
25937;DHT22;13733;51.178;4.450;2023-05-24T07:42:08;17.10;99.90
25937;DHT22;13733;51.178;4.450;2023-05-24T07:44:34;16.90;99.90
25937;DHT22;13733;51.178;4.450;2023-05-24T07:47:00;17.00;99.90
25937;DHT22;13733;51.178;4.450;2023-05-24T07:49:27;17.20;99.90
25937;DHT22;13733;51.178;4.450;2023-05-24T07:51:53;17.20;99.90
25937;DHT22;13733;51.178;4.450;2023-05-24T07:54:22;17.20;99.90
25937;DHT22;13733;51.178;4.450;2023-05-24T07:56:48;17.50;99.90
25937;DHT22;13733;51.178;4.450;2023-05-24T07:59:14;17.80;99.90
25937;DHT22;13733;51.178;4.450;2023-05-24T08:01:41;18.00;99.90
25937;DHT22;13733;51.178;4.450;2023-05-24T08:04:06;18.10;99.90
25937;DHT22;13733;51.178;4.450;2023-05-24T08:06:34;18.20;99.90
25937;DHT22;13733;51.178;4.450;2023-05-24T08:09:01;18.10;99.90
25937;DHT22;13733;51.178;4.450;2023-05-24T08:11:28;17.90;99.90
25937;DHT22;13733;51.178;4.450;2023-05-24T08:13:54;17.90;99.90
25937;DHT22;13733;51.178;4.450;2023-05-24T08:16:22;17.90;99.90
25937;DHT22;13733;51.178;4.450;2023-05-24T08:18:48;17.80;99.90
25937;DHT22;13733;51.178;4.450;2023-05-24T08:21:14;17.80;99.90
25937;DHT22;13733;51.178;4.450;2023-05-24T08:23:40;17.50;99.90
25937;DHT22;13733;51.178;4.450;2023-05-24T08:26:06;17.60;99.90
25937;DHT22;13733;51.178;4.450;2023-05-24T08:28:31;17.50;99.90
25937;DHT22;13733;51.178;4.450;2023-05-24T08:30:57;17.80;99.90
25937;DHT22;13733;51.178;4.450;2023-05-24T08:33:23;17.90;99.90
25937;DHT22;13733;51.178;4.450;2023-05-24T08:35:50;18.00;99.90
25937;DHT22;13733;51.178;4.450;2023-05-24T08:38:17;18.10;99.90
25937;DHT22;13733;51.178;4.450;2023-05-24T08:40:46;18.20;99.90
25937;DHT22;13733;51.178;4.450;2023-05-24T08:43:13;18.40;99.90
25937;DHT22;13733;51.178;4.450;2023-05-24T08:45:39;18.40;99.90
25937;DHT22;13733;51.178;4.450;2023-05-24T08:48:06;18.70;99.90
25937;DHT22;13733;51.178;4.450;2023-05-24T08:50:33;18.60;99.90
25937;DHT22;13733;51.178;4.450;2023-05-24T08:53:00;18.40;99.90
25937;DHT22;13733;51.178;4.450;2023-05-24T08:55:29;18.60;99.90
25937;DHT22;13733;51.178;4.450;2023-05-24T08:57:57;18.80;99.90
25937;DHT22;13733;51.178;4.450;2023-05-24T09:00:24;18.80;99.90
25937;DHT22;13733;51.178;4.450;2023-05-24T09:02:52;19.00;99.90
25937;DHT22;13733;51.178;4.450;2023-05-24T09:05:19;19.00;98.40
25937;DHT22;13733;51.178;4.450;2023-05-24T09:07:48;19.10;96.90
25937;DHT22;13733;51.178;4.450;2023-05-24T09:10:19;19.10;96.00
25937;DHT22;13733;51.178;4.450;2023-05-24T09:12:48;19.10;96.40
25937;DHT22;13733;51.178;4.450;2023-05-24T09:15:16;18.70;98.30
25937;DHT22;13733;51.178;4.450;2023-05-24T09:17:42;18.70;98.80
25937;DHT22;13733;51.178;4.450;2023-05-24T09:20:08;18.90;98.50
25937;DHT22;13733;51.178;4.450;2023-05-24T09:22:37;19.20;98.10
25937;DHT22;13733;51.178;4.450;2023-05-24T09:25:12;19.30;97.90
25937;DHT22;13733;51.178;4.450;2023-05-24T09:27:42;19.20;96.40
25937;DHT22;13733;51.178;4.450;2023-05-24T09:30:14;19.30;95.50
25937;DHT22;13733;51.178;4.450;2023-05-24T09:32:40;19.70;95.80
25937;DHT22;13733;51.178;4.450;2023-05-24T09:35:09;19.80;94.80
25937;DHT22;13733;51.178;4.450;2023-05-24T09:37:36;20.10;94.70
25937;DHT22;13733;51.178;4.450;2023-05-24T09:40:03;20.00;94.30
25937;DHT22;13733;51.178;4.450;2023-05-24T09:42:31;20.30;94.40
25937;DHT22;13733;51.178;4.450;2023-05-24T09:45:06;20.50;94.20
25937;DHT22;13733;51.178;4.450;2023-05-24T09:47:40;20.80;92.90
25937;DHT22;13733;51.178;4.450;2023-05-24T09:50:14;20.80;92.50
25937;DHT22;13733;51.178;4.450;2023-05-24T09:52:41;20.90;91.40
25937;DHT22;13733;51.178;4.450;2023-05-24T09:55:16;20.90;91.90
25937;DHT22;13733;51.178;4.450;2023-05-24T09:57:44;20.70;91.90
25937;DHT22;13733;51.178;4.450;2023-05-24T10:00:11;20.30;92.20
25937;DHT22;13733;51.178;4.450;2023-05-24T10:03:02;20.10;92.80
25937;DHT22;13733;51.178;4.450;2023-05-24T10:05:29;19.90;92.80
25937;DHT22;13733;51.178;4.450;2023-05-24T10:07:56;20.20;92.90
25937;DHT22;13733;51.178;4.450;2023-05-24T10:10:27;20.40;91.70
25937;DHT22;13733;51.178;4.450;2023-05-24T10:12:55;20.70;91.10
25937;DHT22;13733;51.178;4.450;2023-05-24T10:15:22;21.00;91.20
25937;DHT22;13733;51.178;4.450;2023-05-24T10:17:48;21.20;89.30
25937;DHT22;13733;51.178;4.450;2023-05-24T10:20:14;21.50;87.30
25937;DHT22;13733;51.178;4.450;2023-05-24T10:22:43;21.50;89.10
25937;DHT22;13733;51.178;4.450;2023-05-24T10:25:14;21.50;88.60
25937;DHT22;13733;51.178;4.450;2023-05-24T10:27:43;21.40;90.00
25937;DHT22;13733;51.178;4.450;2023-05-24T10:30:36;21.20;87.00
25937;DHT22;13733;51.178;4.450;2023-05-24T10:33:06;21.20;87.30
25937;DHT22;13733;51.178;4.450;2023-05-24T10:35:33;21.40;86.60
25937;DHT22;13733;51.178;4.450;2023-05-24T10:38:06;20.90;90.00
25937;DHT22;13733;51.178;4.450;2023-05-24T10:40:32;21.00;87.80
25937;DHT22;13733;51.178;4.450;2023-05-24T10:43:03;21.20;86.90
25937;DHT22;13733;51.178;4.450;2023-05-24T10:45:40;21.00;84.80
25937;DHT22;13733;51.178;4.450;2023-05-24T10:50:38;21.00;85.70
25937;DHT22;13733;51.178;4.450;2023-05-24T10:53:14;21.10;84.80
25937;DHT22;13733;51.178;4.450;2023-05-24T10:55:59;21.10;83.90
25937;DHT22;13733;51.178;4.450;2023-05-24T11:00:57;21.90;80.40
25937;DHT22;13733;51.178;4.450;2023-05-24T11:03:23;21.80;79.40
25937;DHT22;13733;51.178;4.450;2023-05-24T11:05:52;21.60;79.70
25937;DHT22;13733;51.178;4.450;2023-05-24T11:10:48;21.70;78.30
25937;DHT22;13733;51.178;4.450;2023-05-24T11:13:14;21.70;78.20
25937;DHT22;13733;51.178;4.450;2023-05-24T11:15:49;21.90;78.90
25937;DHT22;13733;51.178;4.450;2023-05-24T11:18:22;21.90;78.60
25937;DHT22;13733;51.178;4.450;2023-05-24T11:20:50;21.80;78.90
25937;DHT22;13733;51.178;4.450;2023-05-24T11:23:16;21.70;78.00
25937;DHT22;13733;51.178;4.450;2023-05-24T11:25:42;22.00;78.30
25937;DHT22;13733;51.178;4.450;2023-05-24T11:28:10;22.20;74.70
25937;DHT22;13733;51.178;4.450;2023-05-24T11:30:43;22.30;74.20
25937;DHT22;13733;51.178;4.450;2023-05-24T11:33:19;22.20;74.60
25937;DHT22;13733;51.178;4.450;2023-05-24T11:35:51;22.50;73.20
25937;DHT22;13733;51.178;4.450;2023-05-24T11:38:18;22.50;71.20
25937;DHT22;13733;51.178;4.450;2023-05-24T11:40:48;22.70;71.90
25937;DHT22;13733;51.178;4.450;2023-05-24T11:43:19;22.60;71.80
25937;DHT22;13733;51.178;4.450;2023-05-24T11:45:48;22.60;73.20
25937;DHT22;13733;51.178;4.450;2023-05-24T11:48:14;22.40;70.60
25937;DHT22;13733;51.178;4.450;2023-05-24T11:50:42;22.30;70.60
25937;DHT22;13733;51.178;4.450;2023-05-24T11:53:12;22.30;71.20
25937;DHT22;13733;51.178;4.450;2023-05-24T11:55:39;22.90;70.80
25937;DHT22;13733;51.178;4.450;2023-05-24T12:00:36;23.00;66.50
25937;DHT22;13733;51.178;4.450;2023-05-24T12:03:03;23.30;68.40
25937;DHT22;13733;51.178;4.450;2023-05-24T12:05:32;23.80;65.70
25937;DHT22;13733;51.178;4.450;2023-05-24T12:08:11;24.30;66.20
25937;DHT22;13733;51.178;4.450;2023-05-24T12:10:38;24.30;62.20
25937;DHT22;13733;51.178;4.450;2023-05-24T12:13:06;23.90;59.50
25937;DHT22;13733;51.178;4.450;2023-05-24T12:15:43;23.70;58.90
25937;DHT22;13733;51.178;4.450;2023-05-24T12:18:19;24.10;58.40
25937;DHT22;13733;51.178;4.450;2023-05-24T12:20:49;24.40;59.40
25937;DHT22;13733;51.178;4.450;2023-05-24T12:23:17;24.20;59.40
25937;DHT22;13733;51.178;4.450;2023-05-24T12:25:43;24.20;59.60
25937;DHT22;13733;51.178;4.450;2023-05-24T12:28:09;24.20;58.10
25937;DHT22;13733;51.178;4.450;2023-05-24T12:30:37;24.50;57.80
25937;DHT22;13733;51.178;4.450;2023-05-24T12:33:08;24.80;56.50
25937;DHT22;13733;51.178;4.450;2023-05-24T12:35:35;24.80;53.60
25937;DHT22;13733;51.178;4.450;2023-05-24T12:38:00;24.10;53.80
25937;DHT22;13733;51.178;4.450;2023-05-24T12:40:27;23.40;56.80
25937;DHT22;13733;51.178;4.450;2023-05-24T12:42:58;22.90;58.00
25937;DHT22;13733;51.178;4.450;2023-05-24T12:45:24;22.90;58.80
25937;DHT22;13733;51.178;4.450;2023-05-24T12:47:56;22.60;59.60
25937;DHT22;13733;51.178;4.450;2023-05-24T12:50:25;22.20;60.80
25937;DHT22;13733;51.178;4.450;2023-05-24T12:52:52;22.00;61.00
25937;DHT22;13733;51.178;4.450;2023-05-24T12:55:22;21.90;63.00
25937;DHT22;13733;51.178;4.450;2023-05-24T12:57:48;21.70;64.20
25937;DHT22;13733;51.178;4.450;2023-05-24T13:00:22;21.70;66.00
25937;DHT22;13733;51.178;4.450;2023-05-24T13:02:48;21.50;64.50
25937;DHT22;13733;51.178;4.450;2023-05-24T13:05:17;21.40;65.00
25937;DHT22;13733;51.178;4.450;2023-05-24T13:07:44;21.50;68.70
25937;DHT22;13733;51.178;4.450;2023-05-24T13:10:11;21.70;67.30
25937;DHT22;13733;51.178;4.450;2023-05-24T13:12:37;21.90;66.40
25937;DHT22;13733;51.178;4.450;2023-05-24T13:15:04;22.00;65.80
25937;DHT22;13733;51.178;4.450;2023-05-24T13:17:30;22.30;64.10
25937;DHT22;13733;51.178;4.450;2023-05-24T13:19:58;22.20;63.10
25937;DHT22;13733;51.178;4.450;2023-05-24T13:22:24;22.10;64.60
25937;DHT22;13733;51.178;4.450;2023-05-24T13:24:50;22.20;65.20
25937;DHT22;13733;51.178;4.450;2023-05-24T13:27:16;22.30;65.20
25937;DHT22;13733;51.178;4.450;2023-05-24T13:29:44;22.50;65.10
25937;DHT22;13733;51.178;4.450;2023-05-24T13:32:10;22.30;65.20
25937;DHT22;13733;51.178;4.450;2023-05-24T13:34:36;22.40;65.30
25937;DHT22;13733;51.178;4.450;2023-05-24T13:37:02;22.70;65.00
25937;DHT22;13733;51.178;4.450;2023-05-24T13:39:28;22.90;64.50
25937;DHT22;13733;51.178;4.450;2023-05-24T13:41:54;22.70;62.70
25937;DHT22;13733;51.178;4.450;2023-05-24T13:44:20;22.60;63.60
25937;DHT22;13733;51.178;4.450;2023-05-24T13:46:48;22.50;63.30
25937;DHT22;13733;51.178;4.450;2023-05-24T13:49:15;22.30;64.20
25937;DHT22;13733;51.178;4.450;2023-05-24T13:51:41;22.00;63.00
25937;DHT22;13733;51.178;4.450;2023-05-24T13:54:08;21.90;64.50
25937;DHT22;13733;51.178;4.450;2023-05-24T13:56:33;21.80;64.80
25937;DHT22;13733;51.178;4.450;2023-05-24T13:59:00;21.50;67.30
25937;DHT22;13733;51.178;4.450;2023-05-24T14:01:27;21.30;66.70
25937;DHT22;13733;51.178;4.450;2023-05-24T14:03:53;21.40;67.60
25937;DHT22;13733;51.178;4.450;2023-05-24T14:06:19;21.60;67.50
25937;DHT22;13733;51.178;4.450;2023-05-24T14:08:49;22.40;67.60
25937;DHT22;13733;51.178;4.450;2023-05-24T14:11:15;23.70;61.90
25937;DHT22;13733;51.178;4.450;2023-05-24T14:13:42;24.60;57.70
25937;DHT22;13733;51.178;4.450;2023-05-24T14:16:08;25.00;55.50
25937;DHT22;13733;51.178;4.450;2023-05-24T14:18:34;24.80;54.70
25937;DHT22;13733;51.178;4.450;2023-05-24T14:21:01;24.60;54.80
25937;DHT22;13733;51.178;4.450;2023-05-24T14:23:27;24.10;55.40
25937;DHT22;13733;51.178;4.450;2023-05-24T14:25:56;23.90;56.30
25937;DHT22;13733;51.178;4.450;2023-05-24T14:28:22;23.60;57.40
25937;DHT22;13733;51.178;4.450;2023-05-24T14:30:48;23.40;58.40
25937;DHT22;13733;51.178;4.450;2023-05-24T14:33:14;23.00;59.30
25937;DHT22;13733;51.178;4.450;2023-05-24T14:35:40;22.60;60.50
25937;DHT22;13733;51.178;4.450;2023-05-24T14:38:08;22.50;61.20
25937;DHT22;13733;51.178;4.450;2023-05-24T14:40:34;22.40;61.50
25937;DHT22;13733;51.178;4.450;2023-05-24T14:43:02;22.40;60.80
25937;DHT22;13733;51.178;4.450;2023-05-24T14:45:28;22.40;61.60
25937;DHT22;13733;51.178;4.450;2023-05-24T14:47:54;22.40;62.50
25937;DHT22;13733;51.178;4.450;2023-05-24T14:50:21;22.40;61.60
25937;DHT22;13733;51.178;4.450;2023-05-24T14:52:48;22.30;61.20
25937;DHT22;13733;51.178;4.450;2023-05-24T14:55:15;22.10;63.40
25937;DHT22;13733;51.178;4.450;2023-05-24T14:57:40;22.00;62.10
25937;DHT22;13733;51.178;4.450;2023-05-24T15:00:07;21.80;63.40
25937;DHT22;13733;51.178;4.450;2023-05-24T15:02:35;21.70;65.10
25937;DHT22;13733;51.178;4.450;2023-05-24T15:05:01;21.60;67.00
25937;DHT22;13733;51.178;4.450;2023-05-24T15:07:28;21.40;67.80
25937;DHT22;13733;51.178;4.450;2023-05-24T15:09:53;21.30;67.50
25937;DHT22;13733;51.178;4.450;2023-05-24T15:12:19;21.30;68.10
25937;DHT22;13733;51.178;4.450;2023-05-24T15:14:45;21.10;67.50
25937;DHT22;13733;51.178;4.450;2023-05-24T15:17:11;21.00;68.30
25937;DHT22;13733;51.178;4.450;2023-05-24T15:19:37;21.20;68.80
25937;DHT22;13733;51.178;4.450;2023-05-24T15:22:07;21.20;68.00
25937;DHT22;13733;51.178;4.450;2023-05-24T15:24:33;21.40;66.90
25937;DHT22;13733;51.178;4.450;2023-05-24T15:26:59;21.50;65.90
25937;DHT22;13733;51.178;4.450;2023-05-24T15:29:26;21.70;65.00
25937;DHT22;13733;51.178;4.450;2023-05-24T15:31:51;21.80;65.00
25937;DHT22;13733;51.178;4.450;2023-05-24T15:34:18;21.80;66.20
25937;DHT22;13733;51.178;4.450;2023-05-24T15:36:44;21.70;66.10
25937;DHT22;13733;51.178;4.450;2023-05-24T15:39:10;21.80;66.60
25937;DHT22;13733;51.178;4.450;2023-05-24T15:41:38;21.80;66.20
25937;DHT22;13733;51.178;4.450;2023-05-24T15:44:04;21.90;66.20
25937;DHT22;13733;51.178;4.450;2023-05-24T15:46:34;21.60;69.10
25937;DHT22;13733;51.178;4.450;2023-05-24T15:49:01;21.30;72.50
25937;DHT22;13733;51.178;4.450;2023-05-24T15:51:28;21.30;73.00
25937;DHT22;13733;51.178;4.450;2023-05-24T15:53:53;21.70;72.60
25937;DHT22;13733;51.178;4.450;2023-05-24T15:56:19;22.00;71.50
25937;DHT22;13733;51.178;4.450;2023-05-24T15:58:46;22.60;69.50
25937;DHT22;13733;51.178;4.450;2023-05-24T16:01:12;22.80;68.20
25937;DHT22;13733;51.178;4.450;2023-05-24T16:03:38;23.00;67.40